Time;durP1;ratioP1;P1;durP2;ratioP2;P2;SDS_P1;SDS_P2;PMS_P1;PMS_P2;Temp;Humidity;BMP_temperature;BMP_pressure;BME280_temperature;BME280_humidity;BME280_pressure;Samples;Min_cycle;Max_cycle;Signal;HPM_P1;HPM_P2
2023/12/29 00:02:01;;;;;;;18.92;9.02;;;10.30;99.90;;;;;;5106076;27;20034;-80
2023/12/29 00:04:27;;;;;;;12.85;9.07;;;10.30;99.90;;;;;;5134930;27;20108;-81
2023/12/29 00:06:53;;;;;;;14.10;8.82;;;10.40;99.90;;;;;;5104257;27;20038;-82
2023/12/29 00:09:21;;;;;;;13.63;8.30;;;10.40;99.90;;;;;;5131874;27;20060;-81
2023/12/29 00:11:48;;;;;;;13.10;9.38;;;10.40;99.90;;;;;;5106750;27;20044;-82
2023/12/29 00:14:13;;;;;;;12.88;8.60;;;10.50;99.90;;;;;;5100224;27;20465;-80
2023/12/29 00:16:39;;;;;;;12.75;9.13;;;10.40;99.90;;;;;;5124111;27;20134;-81
2023/12/29 00:19:04;;;;;;;13.60;8.55;;;10.40;99.90;;;;;;5121422;27;20479;-82
2023/12/29 00:21:30;;;;;;;12.35;9.15;;;10.30;99.90;;;;;;5139522;27;20043;-79
2023/12/29 00:23:56;;;;;;;10.60;8.23;;;10.30;99.90;;;;;;5143190;27;20043;-82
2023/12/29 00:26:22;;;;;;;14.70;8.93;;;10.40;99.90;;;;;;5122578;27;20091;-81
2023/12/29 00:28:48;;;;;;;15.27;9.45;;;10.30;99.90;;;;;;5109363;27;20061;-81
2023/12/29 00:31:16;;;;;;;13.27;8.30;;;10.30;99.90;;;;;;5132433;27;20109;-81
2023/12/29 00:33:43;;;;;;;18.33;8.38;;;10.30;99.90;;;;;;5121425;27;20115;-80
2023/12/29 00:36:17;;;;;;;12.00;8.70;;;10.20;99.90;;;;;;5106100;27;20100;-80
2023/12/29 00:38:43;;;;;;;14.45;8.05;;;10.20;99.90;;;;;;5132631;27;20070;-82
2023/12/29 00:41:09;;;;;;;14.70;8.80;;;10.20;99.90;;;;;;5103499;27;20750;-81
2023/12/29 00:43:35;;;;;;;12.88;8.40;;;10.30;99.90;;;;;;5102649;27;20068;-82
2023/12/29 00:46:05;;;;;;;20.40;13.50;;;10.30;99.90;;;;;;5122993;27;20035;-81
2023/12/29 00:48:34;;;;;;;17.40;8.30;;;10.20;99.90;;;;;;5099574;27;20096;-80
2023/12/29 00:51:03;;;;;;;18.92;8.68;;;10.30;99.90;;;;;;5126003;27;20039;-81
2023/12/29 00:53:29;;;;;;;13.55;8.48;;;10.20;99.90;;;;;;5108704;27;20041;-82
2023/12/29 00:55:55;;;;;;;17.25;8.48;;;10.30;99.90;;;;;;5120142;27;20483;-80
2023/12/29 00:58:20;;;;;;;14.70;10.25;;;10.30;99.90;;;;;;5127853;27;20038;-82
2023/12/29 01:00:46;;;;;;;16.20;8.23;;;10.30;99.90;;;;;;5105407;27;20406;-82
2023/12/29 01:03:11;;;;;;;17.98;8.45;;;10.30;99.90;;;;;;5111214;27;20031;-81
2023/12/29 01:05:37;;;;;;;13.65;8.82;;;10.30;99.90;;;;;;5102270;27;20046;-81
2023/12/29 01:08:03;;;;;;;13.05;7.65;;;10.30;99.90;;;;;;5133124;27;20107;-81
2023/12/29 01:10:28;;;;;;;14.18;8.50;;;10.30;99.90;;;;;;5112255;27;20045;-82
2023/12/29 01:12:54;;;;;;;14.10;8.55;;;10.20;99.90;;;;;;5124160;27;20039;-81
2023/12/29 01:15:20;;;;;;;16.88;8.70;;;10.20;99.90;;;;;;5104421;27;20046;-82
2023/12/29 01:17:45;;;;;;;18.20;9.02;;;10.20;99.90;;;;;;5115744;27;20072;-82
2023/12/29 01:20:11;;;;;;;18.67;8.95;;;10.20;99.90;;;;;;5136274;27;20067;-81
2023/12/29 01:22:36;;;;;;;16.33;8.85;;;10.10;99.90;;;;;;5118200;27;20055;-81
2023/12/29 01:25:02;;;;;;;14.85;9.20;;;10.00;99.90;;;;;;5118920;27;20138;-82
2023/12/29 01:27:29;;;;;;;130.18;35.92;;;9.90;99.90;;;;;;5122290;27;20146;-82
2023/12/29 01:29:55;;;;;;;20.50;9.43;;;9.90;99.90;;;;;;5128271;27;20030;-81
2023/12/29 01:32:21;;;;;;;22.05;9.60;;;9.90;99.90;;;;;;5130479;27;20859;-82
2023/12/29 01:34:47;;;;;;;15.95;8.75;;;10.00;99.90;;;;;;5125008;27;20375;-81
2023/12/29 01:37:12;;;;;;;19.20;8.98;;;9.90;99.90;;;;;;5112668;27;20043;-80
2023/12/29 01:39:39;;;;;;;19.63;9.75;;;10.00;99.90;;;;;;5105640;27;20039;-81
2023/12/29 01:42:05;;;;;;;22.25;9.88;;;9.90;99.90;;;;;;5119961;27;20091;-81
2023/12/29 01:44:31;;;;;;;15.38;8.52;;;10.00;99.90;;;;;;5120281;27;20031;-80
2023/12/29 01:47:00;;;;;;;14.55;7.60;;;10.00;99.90;;;;;;5098637;27;20034;-81
2023/12/29 01:49:27;;;;;;;9.35;7.38;;;10.00;99.90;;;;;;5134656;27;20448;-82
2023/12/29 01:51:58;;;;;;;14.02;8.25;;;9.90;99.90;;;;;;5143634;27;20034;-81
2023/12/29 01:54:27;;;;;;;14.23;7.35;;;9.80;99.90;;;;;;5117189;27;20039;-82
2023/12/29 01:56:56;;;;;;;8.75;7.22;;;9.80;99.90;;;;;;5133152;27;20050;-80
2023/12/29 01:59:22;;;;;;;10.82;7.00;;;9.70;99.90;;;;;;5133912;27;20070;-81
2023/12/29 02:01:48;;;;;;;9.40;6.68;;;9.70;99.90;;;;;;5107102;27;20371;-82
2023/12/29 02:04:15;;;;;;;8.63;6.80;;;9.60;99.90;;;;;;5129774;27;20042;-81
2023/12/29 02:06:41;;;;;;;8.98;7.15;;;9.50;99.90;;;;;;5129812;27;20076;-81
2023/12/29 02:09:07;;;;;;;8.25;7.15;;;9.50;99.90;;;;;;5122649;27;20031;-82
2023/12/29 02:11:33;;;;;;;8.88;7.00;;;9.40;99.90;;;;;;5111162;27;20117;-81
2023/12/29 02:14:00;;;;;;;7.53;6.82;;;9.30;99.90;;;;;;5118649;27;20130;-82
2023/12/29 02:16:51;;;;;;;8.43;7.10;;;9.40;99.90;;;;;;5115046;27;20038;-82
2023/12/29 02:19:43;;;;;;;9.93;8.00;;;9.40;99.90;;;;;;5114183;27;20051;-81
2023/12/29 02:22:09;;;;;;;11.88;7.53;;;9.50;99.90;;;;;;5130636;27;20650;-82
2023/12/29 02:24:36;;;;;;;12.70;8.43;;;9.50;99.90;;;;;;5120218;27;20463;-81
2023/12/29 02:27:34;;;;;;;11.43;8.43;;;9.40;99.90;;;;;;5100277;27;20102;-84
2023/12/29 02:30:15;;;;;;;15.23;8.07;;;9.20;99.90;;;;;;5104195;27;20050;-82
2023/12/29 02:32:46;;;;;;;25.65;21.95;;;9.00;99.90;;;;;;5112347;27;20040;-82
2023/12/29 02:35:20;;;;;;;13.13;11.05;;;8.80;99.90;;;;;;5116994;27;20034;-82
2023/12/29 02:37:47;;;;;;;13.63;8.85;;;8.80;99.90;;;;;;5107064;27;20034;-82
2023/12/29 02:40:14;;;;;;;17.55;9.63;;;8.80;99.90;;;;;;5113502;27;20762;-81
2023/12/29 02:42:46;;;;;;;15.77;9.27;;;8.80;99.90;;;;;;5131557;27;20126;-81
2023/12/29 02:45:11;;;;;;;33.55;29.85;;;8.80;99.90;;;;;;5119428;27;20042;-81
2023/12/29 02:47:37;;;;;;;13.70;10.05;;;8.80;99.90;;;;;;5131471;27;20667;-82
2023/12/29 02:50:03;;;;;;;14.02;9.77;;;8.90;99.90;;;;;;5113842;27;20130;-82
2023/12/29 02:52:28;;;;;;;45.40;40.53;;;9.10;99.90;;;;;;5117218;27;20054;-81
2023/12/29 02:54:54;;;;;;;20.67;12.00;;;9.10;99.90;;;;;;5117135;27;20447;-81
2023/12/29 02:57:20;;;;;;;24.90;13.57;;;9.20;99.90;;;;;;5117392;27;20039;-81
2023/12/29 02:59:45;;;;;;;25.67;14.05;;;9.20;99.90;;;;;;5114099;27;20043;-82
2023/12/29 03:02:11;;;;;;;21.75;11.93;;;9.40;99.90;;;;;;5102443;27;20069;-82
2023/12/29 03:04:36;;;;;;;22.42;12.00;;;9.30;99.90;;;;;;5111238;27;20773;-82
2023/12/29 03:07:02;;;;;;;24.35;11.05;;;9.30;99.90;;;;;;5097808;27;20043;-82
2023/12/29 03:09:28;;;;;;;27.65;11.82;;;9.30;99.90;;;;;;5111366;27;20038;-82
2023/12/29 03:11:53;;;;;;;28.13;13.55;;;9.30;99.90;;;;;;5116133;27;20027;-81
2023/12/29 03:14:19;;;;;;;22.08;12.00;;;9.30;99.90;;;;;;5111038;27;20495;-81
2023/12/29 03:16:44;;;;;;;21.88;11.43;;;9.40;99.90;;;;;;5113654;27;20043;-81
2023/12/29 03:19:10;;;;;;;27.75;10.70;;;9.40;99.90;;;;;;5140505;27;20432;-82
2023/12/29 03:21:35;;;;;;;22.42;11.27;;;9.50;99.90;;;;;;5110999;27;20039;-81
2023/12/29 03:24:01;;;;;;;17.10;9.73;;;9.50;99.90;;;;;;5112647;27;20043;-81
2023/12/29 03:26:27;;;;;;;26.52;10.02;;;9.50;99.90;;;;;;5097342;27;20092;-81
2023/12/29 03:28:52;;;;;;;23.25;10.48;;;9.60;99.90;;;;;;5121916;27;20036;-81
2023/12/29 03:31:18;;;;;;;21.30;10.25;;;9.60;99.90;;;;;;5107154;27;20474;-82
2023/12/29 03:33:43;;;;;;;27.80;10.60;;;9.70;99.90;;;;;;5100139;27;20054;-81
2023/12/29 03:36:09;;;;;;;23.35;10.10;;;9.70;99.90;;;;;;5100985;27;20075;-81
2023/12/29 03:38:36;;;;;;;20.92;8.90;;;9.70;99.90;;;;;;5118816;27;20042;-82
2023/12/29 03:41:02;;;;;;;25.67;10.70;;;9.70;99.90;;;;;;5098005;28;20039;-81
2023/12/29 03:43:28;;;;;;;20.70;10.05;;;9.80;99.90;;;;;;5129227;27;20419;-82
2023/12/29 03:45:53;;;;;;;44.97;27.83;;;9.80;99.90;;;;;;5117529;27;20039;-82
2023/12/29 03:48:19;;;;;;;24.75;9.88;;;9.80;99.90;;;;;;5118581;27;20069;-82
2023/12/29 03:50:45;;;;;;;40.85;25.60;;;9.80;99.90;;;;;;5094203;27;20467;-82
2023/12/29 03:53:10;;;;;;;33.15;13.05;;;9.80;99.90;;;;;;5109459;27;20178;-82
2023/12/29 03:55:37;;;;;;;110.18;44.22;;;9.80;99.90;;;;;;5143145;27;20054;-82
2023/12/29 03:58:03;;;;;;;25.38;9.82;;;9.80;99.90;;;;;;5141080;27;20456;-81
2023/12/29 04:00:28;;;;;;;23.25;9.52;;;9.80;99.90;;;;;;5125945;27;20043;-83
2023/12/29 04:02:54;;;;;;;22.80;11.05;;;9.80;99.90;;;;;;5121529;28;20047;-82
2023/12/29 04:05:20;;;;;;;36.60;33.10;;;9.90;99.90;;;;;;5105642;28;20031;-81
2023/12/29 04:07:45;;;;;;;21.48;11.93;;;9.90;99.90;;;;;;5095150;28;20043;-82
2023/12/29 04:10:11;;;;;;;23.45;10.07;;;9.90;99.90;;;;;;5114052;28;20027;-81
2023/12/29 04:12:36;;;;;;;24.92;9.50;;;9.90;99.90;;;;;;5096033;28;20035;-81
2023/12/29 04:15:04;;;;;;;25.73;9.52;;;9.80;99.90;;;;;;5121509;28;20558;-81
2023/12/29 04:17:30;;;;;;;31.67;10.10;;;9.80;99.90;;;;;;5127566;28;20148;-82
2023/12/29 04:19:56;;;;;;;21.90;9.32;;;9.80;99.90;;;;;;5108089;28;20498;-81
2023/12/29 04:22:22;;;;;;;19.80;9.43;;;9.80;99.90;;;;;;5110962;28;20051;-81
2023/12/29 04:24:47;;;;;;;26.40;9.30;;;9.80;99.90;;;;;;5107360;28;20123;-82
2023/12/29 04:27:14;;;;;;;27.55;9.32;;;9.80;99.90;;;;;;5111214;27;20496;-80
2023/12/29 04:29:40;;;;;;;22.33;10.23;;;9.80;99.90;;;;;;5098210;27;20039;-81
2023/12/29 04:32:06;;;;;;;25.15;15.82;;;9.80;99.90;;;;;;5114222;27;20481;-81
2023/12/29 04:34:31;;;;;;;23.58;9.68;;;9.80;99.90;;;;;;5114192;27;20043;-82
2023/12/29 04:36:57;;;;;;;247.85;102.75;;;9.80;99.90;;;;;;5116678;27;20058;-81
2023/12/29 04:39:24;;;;;;;20.05;12.48;;;9.90;99.90;;;;;;5116875;27;20042;-82
2023/12/29 04:41:50;;;;;;;26.75;9.70;;;9.90;99.90;;;;;;5139463;27;20047;-81
2023/12/29 04:44:16;;;;;;;26.75;9.90;;;10.00;99.90;;;;;;5131018;27;20043;-82
2023/12/29 04:46:42;;;;;;;20.92;9.10;;;9.90;99.90;;;;;;5127963;27;20143;-83
2023/12/29 04:49:08;;;;;;;21.15;9.75;;;9.80;99.90;;;;;;5123158;27;20042;-82
2023/12/29 04:51:34;;;;;;;19.83;8.95;;;9.80;99.90;;;;;;5132164;27;20038;-81
2023/12/29 04:53:59;;;;;;;26.92;10.15;;;9.80;99.90;;;;;;5116804;27;20041;-82
2023/12/29 04:56:25;;;;;;;25.48;9.30;;;9.80;99.90;;;;;;5112335;27;20073;-82
2023/12/29 04:58:52;;;;;;;19.48;9.40;;;9.70;99.90;;;;;;5151144;27;20038;-82
2023/12/29 05:01:17;;;;;;;22.73;9.05;;;9.70;99.90;;;;;;5107479;27;20044;-80
2023/12/29 05:03:43;;;;;;;18.88;12.02;;;9.80;99.90;;;;;;5111622;27;20573;-82
2023/12/29 05:06:09;;;;;;;18.70;9.57;;;9.80;99.90;;;;;;5116569;27;20039;-82
2023/12/29 05:08:34;;;;;;;22.33;9.45;;;9.80;99.90;;;;;;5113371;27;20517;-81
2023/12/29 05:11:00;;;;;;;21.35;11.25;;;9.90;99.90;;;;;;5103751;27;20046;-82
2023/12/29 05:13:26;;;;;;;25.02;9.70;;;9.90;99.90;;;;;;5141591;27;20042;-82
2023/12/29 05:15:52;;;;;;;26.83;11.27;;;9.90;99.90;;;;;;5123754;27;20113;-82
2023/12/29 05:18:17;;;;;;;26.13;9.90;;;9.90;99.90;;;;;;5128073;27;20046;-82
2023/12/29 05:20:43;;;;;;;21.65;10.82;;;9.90;99.90;;;;;;5118561;27;20129;-82
2023/12/29 05:23:08;;;;;;;16.25;8.85;;;9.90;99.90;;;;;;5118475;27;20073;-82
2023/12/29 05:25:34;;;;;;;20.45;9.80;;;10.00;99.90;;;;;;5148534;27;20047;-82
2023/12/29 05:28:00;;;;;;;24.67;10.15;;;9.90;99.90;;;;;;5130912;27;20143;-82
2023/12/29 05:30:27;;;;;;;19.13;8.73;;;9.90;99.90;;;;;;5121636;27;20063;-81
2023/12/29 05:32:53;;;;;;;28.40;11.88;;;9.80;99.90;;;;;;5100083;27;20039;-82
2023/12/29 05:35:18;;;;;;;17.95;9.93;;;9.90;99.90;;;;;;5119966;27;20134;-82
2023/12/29 05:37:44;;;;;;;23.42;9.68;;;9.90;99.90;;;;;;5110066;27;20054;-82
2023/12/29 05:40:10;;;;;;;21.35;10.18;;;10.00;99.90;;;;;;5106988;27;20520;-82
2023/12/29 05:42:36;;;;;;;29.63;10.45;;;10.00;99.90;;;;;;5126524;27;20611;-83
2023/12/29 05:45:02;;;;;;;20.73;9.02;;;9.90;99.90;;;;;;5121657;27;20117;-82
2023/12/29 05:47:27;;;;;;;91.45;31.23;;;9.90;99.90;;;;;;5109811;27;20156;-82
2023/12/29 05:49:53;;;;;;;19.52;9.05;;;9.90;99.90;;;;;;5136741;27;20114;-81
2023/12/29 05:52:18;;;;;;;21.02;9.10;;;9.90;99.90;;;;;;5129770;27;20046;-82
2023/12/29 05:54:44;;;;;;;44.05;20.55;;;9.90;99.90;;;;;;5117857;27;20470;-81
2023/12/29 05:57:10;;;;;;;23.20;9.20;;;9.90;99.90;;;;;;5101828;27;20033;-82
2023/12/29 05:59:36;;;;;;;22.58;8.75;;;9.90;99.90;;;;;;5114464;27;20047;-82
2023/12/29 06:02:02;;;;;;;20.45;9.07;;;9.90;99.90;;;;;;5108476;27;20045;-81
2023/12/29 06:04:28;;;;;;;21.90;9.50;;;9.90;99.90;;;;;;5105800;27;20039;-82
2023/12/29 06:06:53;;;;;;;21.08;9.25;;;10.00;99.90;;;;;;5116073;27;20049;-83
2023/12/29 06:09:19;;;;;;;24.10;9.10;;;10.00;99.90;;;;;;5107814;27;20034;-81
2023/12/29 06:11:45;;;;;;;24.95;11.02;;;9.90;99.90;;;;;;5102177;27;20042;-82
2023/12/29 06:14:10;;;;;;;20.42;9.35;;;9.90;99.90;;;;;;5104218;27;20046;-81
2023/12/29 06:16:36;;;;;;;22.35;9.57;;;10.00;99.90;;;;;;5120043;27;20143;-82
2023/12/29 06:19:02;;;;;;;19.60;10.05;;;10.00;99.90;;;;;;5122290;27;20122;-82
2023/12/29 06:21:27;;;;;;;26.65;10.38;;;9.90;99.90;;;;;;5141246;27;20202;-82
2023/12/29 06:23:53;;;;;;;24.10;10.75;;;9.90;99.90;;;;;;5114535;27;20514;-82
2023/12/29 06:26:20;;;;;;;20.73;8.88;;;9.90;99.90;;;;;;5130402;27;20043;-81
2023/12/29 06:28:46;;;;;;;28.38;14.55;;;9.90;99.90;;;;;;5150902;27;20146;-81
2023/12/29 06:31:12;;;;;;;19.98;9.32;;;9.90;99.90;;;;;;5131747;27;20039;-82
2023/12/29 06:33:44;;;;;;;18.60;9.27;;;9.90;99.90;;;;;;5132007;27;20038;-81
2023/12/29 06:36:10;;;;;;;19.52;9.52;;;9.80;99.90;;;;;;5124189;27;20038;-82
2023/12/29 06:38:36;;;;;;;21.15;9.77;;;9.70;99.90;;;;;;5132409;27;20034;-83
2023/12/29 06:41:06;;;;;;;22.83;9.65;;;9.60;99.90;;;;;;5135140;27;20062;-83
2023/12/29 06:43:32;;;;;;;19.45;8.50;;;9.50;99.90;;;;;;5104244;27;20467;-81
2023/12/29 06:45:58;;;;;;;24.33;9.77;;;9.40;99.90;;;;;;5109050;27;20037;-80
2023/12/29 06:48:23;;;;;;;27.52;11.75;;;9.50;99.90;;;;;;5119373;27;20027;-82
2023/12/29 06:50:49;;;;;;;23.35;10.05;;;9.40;99.90;;;;;;5103851;27;20073;-80
2023/12/29 06:53:14;;;;;;;14.55;8.98;;;9.40;99.90;;;;;;5124436;27;20038;-82
2023/12/29 06:55:40;;;;;;;22.08;10.27;;;9.40;99.90;;;;;;5131118;27;20118;-81
2023/12/29 06:58:06;;;;;;;28.50;10.48;;;9.40;99.90;;;;;;5115956;27;20046;-82
2023/12/29 07:00:31;;;;;;;23.70;10.27;;;9.40;99.90;;;;;;5146137;27;20030;-82
2023/12/29 07:02:57;;;;;;;23.83;9.88;;;9.40;99.90;;;;;;5145931;27;20506;-83
2023/12/29 07:05:22;;;;;;;32.53;10.90;;;9.50;99.90;;;;;;5114222;27;20079;-82
2023/12/29 07:07:48;;;;;;;24.13;10.20;;;9.50;99.90;;;;;;5124941;27;20074;-83
2023/12/29 07:10:14;;;;;;;26.17;10.40;;;9.60;99.90;;;;;;5128977;27;20030;-82
2023/12/29 07:12:43;;;;;;;30.25;23.23;;;9.60;99.90;;;;;;5113881;27;20539;-83
2023/12/29 07:15:09;;;;;;;20.55;9.93;;;9.60;99.90;;;;;;5130743;27;20045;-82
2023/12/29 07:17:34;;;;;;;28.13;11.82;;;9.60;99.90;;;;;;5116969;27;20038;-81
2023/12/29 07:20:00;;;;;;;1999.90;999.90;;;9.60;99.90;;;;;;5124930;27;20493;-83
2023/12/29 07:22:26;;;;;;;1999.90;999.90;;;9.60;99.90;;;;;;5121741;27;20590;-82
2023/12/29 07:24:51;;;;;;;1999.90;999.90;;;9.50;99.90;;;;;;5114606;27;20146;-82
2023/12/29 07:27:17;;;;;;;1999.90;999.90;;;9.50;99.90;;;;;;5112343;27;20043;-83
2023/12/29 07:29:42;;;;;;;1999.90;999.90;;;9.50;99.90;;;;;;5106868;27;20038;-83
2023/12/29 07:32:08;;;;;;;1999.90;999.90;;;9.50;99.90;;;;;;5141018;27;20092;-82
2023/12/29 07:34:34;;;;;;;1999.90;999.90;;;9.50;99.90;;;;;;5123003;27;20042;-82
2023/12/29 07:36:59;;;;;;;1999.90;999.90;;;9.50;99.90;;;;;;5099937;27;20118;-83
2023/12/29 07:39:25;;;;;;;1999.90;999.90;;;9.50;99.90;;;;;;5113365;27;20033;-83
2023/12/29 07:41:51;;;;;;;1999.90;999.90;;;9.50;99.90;;;;;;5109992;27;20487;-83
2023/12/29 07:44:20;;;;;;;1999.90;999.90;;;9.50;99.90;;;;;;5131655;27;20481;-82
2023/12/29 07:46:45;;;;;;;1999.90;999.90;;;9.40;99.90;;;;;;5149479;27;20490;-84
2023/12/29 07:49:11;;;;;;;1999.90;999.90;;;9.50;99.90;;;;;;5148457;27;20037;-82
2023/12/29 07:51:41;;;;;;;1999.90;999.90;;;9.40;99.90;;;;;;5114942;27;20581;-82
2023/12/29 07:54:07;;;;;;;1999.90;999.90;;;9.50;99.90;;;;;;5095744;28;20085;-83
2023/12/29 07:56:33;;;;;;;1999.90;999.90;;;9.60;99.90;;;;;;5143678;27;20043;-83
2023/12/29 07:58:59;;;;;;;1999.90;999.90;;;9.60;99.90;;;;;;5110223;27;20047;-82
2023/12/29 08:01:25;;;;;;;1999.90;999.90;;;9.60;99.90;;;;;;5099867;28;20045;-82
2023/12/29 08:03:51;;;;;;;1999.90;999.90;;;9.60;99.90;;;;;;5106647;27;20051;-83
2023/12/29 08:06:17;;;;;;;1999.90;999.90;;;9.60;99.90;;;;;;5098465;27;20073;-82
2023/12/29 08:08:42;;;;;;;1999.90;999.90;;;9.70;99.90;;;;;;5147607;27;20636;-82
2023/12/29 08:11:17;;;;;;;1999.90;999.90;;;9.60;99.90;;;;;;5104521;27;20038;-81
2023/12/29 08:13:48;;;;;;;1999.90;999.90;;;9.60;99.90;;;;;;5116395;27;20547;-81
2023/12/29 08:16:14;;;;;;;1999.90;999.90;;;9.70;99.90;;;;;;5123036;27;20050;-82
2023/12/29 08:18:40;;;;;;;1999.90;999.90;;;9.70;99.90;;;;;;5102638;27;20043;-82
2023/12/29 08:21:05;;;;;;;1999.90;999.90;;;9.80;99.90;;;;;;5108023;27;20034;-82
2023/12/29 08:23:31;;;;;;;1999.90;999.90;;;9.70;99.90;;;;;;5111455;27;20111;-83
2023/12/29 08:25:58;;;;;;;1999.90;999.90;;;9.70;99.90;;;;;;5133865;27;20084;-82
2023/12/29 08:28:24;;;;;;;1999.90;999.90;;;9.70;99.90;;;;;;5114171;27;20443;-83
2023/12/29 08:30:49;;;;;;;1999.90;999.90;;;9.70;99.90;;;;;;5130108;27;20030;-82
2023/12/29 08:33:15;;;;;;;1999.90;999.90;;;9.80;99.90;;;;;;5118906;27;20039;-83
2023/12/29 08:35:41;;;;;;;1999.90;999.90;;;9.80;99.90;;;;;;5101315;27;20047;-82
2023/12/29 08:38:07;;;;;;;1999.90;999.90;;;9.70;99.90;;;;;;5149944;27;20057;-82
2023/12/29 08:40:32;;;;;;;1999.90;999.90;;;9.70;99.90;;;;;;5099941;27;20050;-80
2023/12/29 08:42:58;;;;;;;22.80;11.82;;;9.70;99.90;;;;;;5126658;27;20071;-82
2023/12/29 08:45:24;;;;;;;23.33;10.75;;;9.70;99.90;;;;;;5143946;27;20542;-82
2023/12/29 08:47:50;;;;;;;22.13;10.05;;;9.70;99.90;;;;;;5144542;27;20035;-82
2023/12/29 08:50:16;;;;;;;282.42;118.75;;;9.70;99.90;;;;;;5150029;27;20063;-81
2023/12/29 08:52:42;;;;;;;23.17;11.63;;;9.60;99.90;;;;;;5103893;27;20384;-81
2023/12/29 08:55:09;;;;;;;22.88;16.73;;;9.60;99.90;;;;;;5102397;27;20126;-82
2023/12/29 08:57:35;;;;;;;27.70;12.88;;;9.60;99.90;;;;;;5104038;27;20030;-81
2023/12/29 09:00:01;;;;;;;23.33;9.77;;;9.70;99.90;;;;;;5129595;27;20561;-82
2023/12/29 09:02:26;;;;;;;49.20;45.28;;;9.70;99.90;;;;;;5114155;27;20042;-81
2023/12/29 09:04:52;;;;;;;22.65;9.98;;;9.70;99.90;;;;;;5143750;27;20107;-83
2023/12/29 09:07:17;;;;;;;23.15;9.73;;;9.70;99.90;;;;;;5125019;27;20045;-83
2023/12/29 09:09:43;;;;;;;20.08;8.88;;;9.70;99.90;;;;;;5143279;27;20042;-82
2023/12/29 09:12:09;;;;;;;54.58;36.75;;;9.70;99.90;;;;;;5121513;27;20043;-82
2023/12/29 09:14:34;;;;;;;21.65;10.63;;;9.80;99.90;;;;;;5117122;27;20130;-82
2023/12/29 09:17:00;;;;;;;25.70;11.70;;;9.80;99.90;;;;;;5102490;27;20038;-82
2023/12/29 09:19:26;;;;;;;80.68;61.03;;;9.80;99.90;;;;;;5133444;27;20035;-81
2023/12/29 09:21:52;;;;;;;19.90;13.65;;;9.90;99.90;;;;;;5130395;27;20095;-83
2023/12/29 09:24:18;;;;;;;21.45;9.52;;;9.80;99.90;;;;;;5129689;27;20134;-82
2023/12/29 09:26:44;;;;;;;15.55;8.88;;;9.80;99.90;;;;;;5140204;27;20043;-83
2023/12/29 09:29:09;;;;;;;19.52;10.13;;;9.90;99.90;;;;;;5104652;27;20077;-83
2023/12/29 09:31:36;;;;;;;20.92;8.60;;;9.90;99.90;;;;;;5148018;27;20455;-83
2023/12/29 09:34:01;;;;;;;23.13;9.82;;;9.90;99.90;;;;;;5123800;27;20414;-82
2023/12/29 09:36:27;;;;;;;21.63;9.30;;;9.90;99.90;;;;;;5114023;27;20039;-82
2023/12/29 09:38:53;;;;;;;24.90;9.98;;;10.00;99.90;;;;;;5104244;27;20082;-83
2023/12/29 09:41:20;;;;;;;21.80;8.43;;;10.00;99.90;;;;;;5111121;27;20066;-81
2023/12/29 09:43:49;;;;;;;414.52;260.75;;;10.10;99.90;;;;;;5120170;27;20031;-82
2023/12/29 09:46:18;;;;;;;19.73;8.57;;;10.20;99.90;;;;;;5127318;27;20035;-82
2023/12/29 09:48:52;;;;;;;192.93;101.22;;;10.30;99.90;;;;;;5121199;27;20055;-82
2023/12/29 09:51:22;;;;;;;20.13;11.43;;;10.30;99.90;;;;;;5115961;27;20648;-81
2023/12/29 09:53:48;;;;;;;45.00;41.22;;;10.40;99.90;;;;;;5116017;27;20043;-83
2023/12/29 09:56:14;;;;;;;20.30;8.60;;;10.40;99.90;;;;;;5123987;27;20068;-83
2023/12/29 09:58:41;;;;;;;25.85;9.05;;;10.40;99.90;;;;;;5120937;27;20054;-82
2023/12/29 10:01:06;;;;;;;20.13;8.95;;;10.40;99.90;;;;;;5109712;27;20039;-82
2023/12/29 10:03:33;;;;;;;19.65;8.38;;;10.40;99.90;;;;;;5116566;27;20046;-82
2023/12/29 10:06:03;;;;;;;24.67;8.50;;;10.40;99.90;;;;;;5111520;27;20129;-83
2023/12/29 10:08:30;;;;;;;22.02;10.55;;;10.40;99.90;;;;;;5105514;27;20046;-82
2023/12/29 10:11:00;;;;;;;19.20;9.20;;;10.40;99.90;;;;;;5119018;27;20043;-82
2023/12/29 10:13:28;;;;;;;18.50;8.57;;;10.40;99.90;;;;;;5100358;27;20044;-82
2023/12/29 10:16:11;;;;;;;16.67;12.15;;;10.40;99.90;;;;;;5120900;27;20101;-80
2023/12/29 10:18:49;;;;;;;17.30;8.63;;;10.40;99.90;;;;;;5138683;27;20091;-82
2023/12/29 10:21:28;;;;;;;21.45;14.23;;;10.40;99.90;;;;;;5141594;27;20039;-82
2023/12/29 10:24:10;;;;;;;40.00;36.40;;;10.30;99.90;;;;;;5099501;27;20046;-81
2023/12/29 10:26:36;;;;;;;21.67;10.10;;;10.40;99.90;;;;;;5099336;27;20038;-81
2023/12/29 10:29:02;;;;;;;84.72;49.63;;;10.40;99.90;;;;;;5120792;27;20079;-83
2023/12/29 10:31:28;;;;;;;17.70;14.57;;;10.40;99.90;;;;;;5120597;27;20047;-82
2023/12/29 10:34:18;;;;;;;66.55;61.33;;;10.40;99.90;;;;;;5114481;27;20070;-82
2023/12/29 10:36:49;;;;;;;16.20;8.65;;;10.40;99.90;;;;;;5122229;27;20034;-82
2023/12/29 10:39:15;;;;;;;16.63;9.65;;;10.40;99.90;;;;;;5125786;27;20499;-83
2023/12/29 10:41:41;;;;;;;17.25;9.25;;;10.30;99.90;;;;;;5113522;27;20050;-82
2023/12/29 10:44:08;;;;;;;17.55;8.45;;;10.30;99.90;;;;;;5141107;27;20035;-82
2023/12/29 10:46:33;;;;;;;17.65;10.35;;;10.20;99.90;;;;;;5099200;27;20503;-82
2023/12/29 10:49:13;;;;;;;16.10;7.82;;;10.20;99.90;;;;;;5107769;27;20034;-83
2023/12/29 10:51:39;;;;;;;25.20;22.70;;;10.00;99.90;;;;;;5100303;27;20039;-82
2023/12/29 10:54:06;;;;;;;15.65;8.45;;;10.00;99.90;;;;;;5104954;27;20035;-82
2023/12/29 10:56:32;;;;;;;20.60;18.60;;;10.00;99.90;;;;;;5109836;27;20092;-82
2023/12/29 10:59:05;;;;;;;22.20;9.10;;;10.10;99.90;;;;;;5129055;27;20086;-82
2023/12/29 11:01:35;;;;;;;18.05;9.68;;;10.10;99.90;;;;;;5130671;27;20047;-82
2023/12/29 11:04:03;;;;;;;113.90;95.10;;;10.10;99.90;;;;;;5105096;27;20035;-81
2023/12/29 11:06:30;;;;;;;13.20;7.50;;;10.20;99.90;;;;;;5121949;27;20114;-81
2023/12/29 11:08:56;;;;;;;12.15;8.00;;;10.20;99.90;;;;;;5119803;27;20204;-82
2023/12/29 11:11:22;;;;;;;139.43;112.28;;;10.30;99.90;;;;;;5122001;27;20498;-81
2023/12/29 11:13:49;;;;;;;20.00;8.82;;;10.30;99.90;;;;;;5107155;27;20042;-83
2023/12/29 11:16:21;;;;;;;12.80;7.70;;;10.30;99.90;;;;;;5101515;27;20043;-82
2023/12/29 11:18:48;;;;;;;19.88;10.73;;;10.30;99.90;;;;;;5101489;27;20050;-81
2023/12/29 11:21:17;;;;;;;24.27;17.02;;;10.40;99.90;;;;;;5101082;27;20042;-83
2023/12/29 11:23:43;;;;;;;17.92;9.20;;;10.20;99.90;;;;;;5101215;27;20130;-81
2023/12/29 11:26:09;;;;;;;15.88;8.68;;;10.10;99.90;;;;;;5100805;27;20100;-82
2023/12/29 11:28:35;;;;;;;19.42;8.10;;;10.20;99.90;;;;;;5095425;27;20118;-82
2023/12/29 11:31:03;;;;;;;15.95;10.95;;;10.30;99.90;;;;;;5123620;27;20394;-80
2023/12/29 11:33:42;;;;;;;14.48;9.45;;;10.50;99.90;;;;;;5102711;27;20051;-82
2023/12/29 11:36:16;;;;;;;16.75;8.85;;;10.70;99.90;;;;;;5105562;27;20061;-84
2023/12/29 11:38:49;;;;;;;;;;;10.80;99.90;;;;;;5125170;27;20039;-83
2023/12/29 11:41:39;;;;;;;18.58;8.32;;;11.00;99.90;;;;;;5127560;27;20371;-83
2023/12/29 11:44:04;;;;;;;18.42;16.65;;;11.00;99.90;;;;;;5128389;27;20436;-82
2023/12/29 11:46:44;;;;;;;14.40;8.18;;;11.10;99.90;;;;;;5108348;27;20100;-82
2023/12/29 11:49:10;;;;;;;13.10;11.10;;;11.10;99.90;;;;;;5100718;27;20034;-84
2023/12/29 11:51:39;;;;;;;15.45;7.20;;;11.10;99.90;;;;;;5126934;27;20053;-80
2023/12/29 11:54:06;;;;;;;14.10;7.30;;;11.10;99.90;;;;;;5136731;27;20571;-80
2023/12/29 11:56:40;;;;;;;14.35;6.80;;;11.10;99.90;;;;;;5104862;28;20130;-80
2023/12/29 11:59:46;;;;;;;18.55;10.65;;;11.20;99.90;;;;;;5119286;27;20035;-80
2023/12/29 12:02:28;;;;;;;16.98;6.95;;;11.20;99.90;;;;;;5107939;27;20111;-81
2023/12/29 12:04:53;;;;;;;17.88;7.10;;;11.10;99.90;;;;;;5108614;27;20045;-81
2023/12/29 12:07:22;;;;;;;10.32;6.50;;;11.00;99.90;;;;;;5105189;27;20035;-81
2023/12/29 12:09:52;;;;;;;97.40;59.63;;;11.00;99.90;;;;;;5102731;27;20646;-81
2023/12/29 12:12:42;;;;;;;15.38;6.65;;;10.90;99.90;;;;;;5112317;27;20160;-84
2023/12/29 12:15:26;;;;;;;18.10;16.45;;;10.70;99.90;;;;;;5119243;27;20039;-84
2023/12/29 12:17:52;;;;;;;11.60;7.47;;;10.70;99.90;;;;;;5123074;27;20542;-83
2023/12/29 12:20:18;;;;;;;12.90;7.57;;;10.70;99.90;;;;;;5138068;27;20067;-83
2023/12/29 12:22:45;;;;;;;24.52;22.13;;;10.70;99.90;;;;;;5115605;27;20050;-83
2023/12/29 12:25:12;;;;;;;13.80;7.50;;;10.60;99.90;;;;;;5121190;27;20573;-82
2023/12/29 12:27:38;;;;;;;19.17;8.00;;;10.50;99.90;;;;;;5115699;27;20038;-83
2023/12/29 12:30:05;;;;;;;89.40;75.45;;;10.40;99.90;;;;;;5117036;27;20037;-82
2023/12/29 12:32:32;;;;;;;18.83;16.88;;;10.20;99.90;;;;;;5100634;27;20092;-81
2023/12/29 12:34:57;;;;;;;16.83;8.02;;;10.20;99.90;;;;;;5100000;27;20050;-83
2023/12/29 12:37:28;;;;;;;14.38;9.20;;;10.10;99.90;;;;;;5113553;27;20035;-83